createdAt,value
2023-05-10T00:02:13.226Z,21.17
2023-05-10T00:04:41.753Z,21.42
2023-05-10T00:07:11.331Z,22.55
2023-05-10T00:09:41.108Z,22.70
2023-05-10T00:12:09.497Z,22.30
2023-05-10T00:14:37.908Z,23.08
2023-05-10T00:17:06.050Z,22.40
2023-05-10T00:19:34.507Z,21.58
2023-05-10T00:22:02.721Z,25.88
2023-05-10T00:24:31.103Z,23.05
2023-05-10T00:27:01.699Z,24.50
2023-05-10T00:29:30.366Z,27.77
2023-05-10T00:31:58.563Z,27.50
2023-05-10T00:34:27.020Z,26.30
2023-05-10T00:36:55.724Z,26.38
2023-05-10T00:39:23.946Z,26.90
2023-05-10T00:41:52.152Z,26.50
2023-05-10T00:44:22.021Z,26.92
2023-05-10T00:46:50.965Z,29.50
2023-05-10T00:49:19.802Z,31.25
2023-05-10T00:51:48.483Z,32.55
2023-05-10T00:54:17.155Z,29.67
2023-05-10T00:56:49.896Z,28.80
2023-05-10T00:59:18.864Z,30.77
2023-05-10T01:01:48.949Z,30.13
2023-05-10T01:04:17.996Z,31.00
2023-05-10T01:06:46.326Z,34.25
2023-05-10T01:09:14.499Z,35.00
2023-05-10T01:11:43.059Z,30.90
2023-05-10T01:14:11.954Z,34.97
2023-05-10T01:16:42.396Z,36.03
2023-05-10T01:19:19.745Z,31.70
2023-05-10T01:21:55.633Z,33.83
2023-05-10T01:24:42.777Z,33.45
2023-05-10T01:27:36.597Z,36.05
2023-05-10T01:30:23.778Z,34.90
2023-05-10T01:33:01.431Z,33.40
2023-05-10T01:35:36.944Z,34.78
2023-05-10T01:38:13.407Z,34.47
2023-05-10T01:40:49.614Z,34.05
2023-05-10T01:43:23.597Z,35.53
2023-05-10T01:46:05.918Z,34.05
2023-05-10T01:48:36.103Z,32.38
2023-05-10T01:51:05.595Z,30.65
2023-05-10T01:53:35.888Z,30.13
2023-05-10T01:56:05.234Z,30.58
2023-05-10T01:58:36.579Z,31.80
2023-05-10T02:01:08.086Z,29.05
2023-05-10T02:03:39.344Z,32.70
2023-05-10T02:06:09.011Z,33.72
2023-05-10T02:08:38.950Z,30.02
2023-05-10T02:11:07.570Z,28.48
2023-05-10T02:13:38.128Z,29.25
2023-05-10T02:16:08.662Z,31.02
2023-05-10T02:18:38.742Z,35.50
2023-05-10T02:21:08.139Z,31.05
2023-05-10T02:23:38.485Z,35.42
2023-05-10T02:26:08.672Z,34.13
2023-05-10T02:28:39.022Z,35.08
2023-05-10T02:31:08.559Z,39.03
2023-05-10T02:33:39.374Z,34.92
2023-05-10T02:36:09.920Z,40.47
2023-05-10T02:38:39.311Z,43.78
2023-05-10T02:41:09.976Z,38.83
2023-05-10T02:43:39.800Z,40.88
2023-05-10T02:46:08.606Z,40.50
2023-05-10T02:48:39.388Z,38.58
2023-05-10T02:51:10.513Z,43.67
2023-05-10T02:53:43.228Z,40.28
2023-05-10T02:56:19.707Z,42.80
2023-05-10T02:58:48.369Z,40.97
2023-05-10T03:01:16.863Z,42.17
2023-05-10T03:03:46.581Z,42.17
2023-05-10T03:06:14.839Z,47.30
2023-05-10T03:08:43.213Z,50.10
2023-05-10T03:11:26.259Z,45.35
2023-05-10T03:14:05.757Z,45.63
2023-05-10T03:16:45.185Z,47.28
2023-05-10T03:19:24.856Z,50.85
2023-05-10T03:21:55.758Z,43.50
2023-05-10T03:24:25.454Z,42.85
2023-05-10T03:26:57.855Z,39.33
2023-05-10T03:29:29.044Z,41.05
2023-05-10T03:31:57.312Z,40.15
2023-05-10T03:34:33.644Z,37.88
2023-05-10T03:37:01.936Z,39.22
2023-05-10T03:39:30.175Z,38.10
2023-05-10T03:41:58.438Z,39.28
2023-05-10T03:44:26.668Z,40.67
2023-05-10T03:46:54.921Z,37.63
2023-05-10T03:49:23.214Z,40.85
2023-05-10T03:51:52.740Z,47.28
2023-05-10T03:54:21.374Z,45.97
2023-05-10T03:56:50.227Z,43.60
2023-05-10T03:59:18.569Z,46.22
2023-05-10T04:01:46.953Z,43.40
2023-05-10T04:04:15.542Z,42.33
2023-05-10T04:06:43.836Z,39.95
2023-05-10T04:09:13.941Z,41.72
2023-05-10T04:11:42.515Z,39.65
2023-05-10T04:14:10.800Z,43.78
2023-05-10T04:16:39.404Z,37.25
2023-05-10T04:19:07.820Z,37.53
2023-05-10T04:21:36.138Z,37.72
2023-05-10T04:24:04.789Z,43.03
2023-05-10T04:26:34.638Z,43.47
2023-05-10T04:29:03.627Z,41.47
2023-05-10T04:31:32.036Z,43.38
2023-05-10T04:34:00.620Z,43.47
2023-05-10T04:36:28.794Z,44.20
2023-05-10T04:38:57.388Z,47.90
2023-05-10T04:41:26.565Z,51.88
2023-05-10T04:43:57.180Z,49.97
2023-05-10T04:46:25.744Z,61.28
2023-05-10T04:48:54.485Z,50.50
2023-05-10T04:51:22.813Z,54.72
2023-05-10T04:54:01.376Z,57.35
2023-05-10T04:56:33.614Z,52.50
2023-05-10T04:59:03.685Z,57.92
2023-05-10T05:01:31.917Z,59.03
2023-05-10T05:04:00.724Z,56.80
2023-05-10T05:06:29.139Z,54.63
2023-05-10T05:08:57.448Z,50.30
2023-05-10T05:11:26.597Z,59.25
2023-05-10T05:13:54.844Z,55.40
2023-05-10T05:16:24.462Z,51.40
2023-05-10T05:18:53.220Z,60.15
2023-05-10T05:21:22.591Z,53.80
2023-05-10T05:23:51.320Z,52.20
2023-05-10T05:26:19.885Z,49.58
2023-05-10T05:28:49.798Z,60.88
2023-05-10T05:31:19.658Z,55.25
2023-05-10T05:33:49.584Z,54.42
2023-05-10T05:36:17.924Z,53.90
2023-05-10T05:38:46.174Z,56.90
2023-05-10T05:41:14.433Z,52.00
2023-05-10T05:43:42.945Z,49.30
2023-05-10T05:46:11.431Z,46.95
2023-05-10T05:48:39.722Z,48.17
2023-05-10T05:51:09.730Z,43.65
2023-05-10T05:53:37.907Z,49.33
2023-05-10T05:56:06.895Z,46.97
2023-05-10T05:58:35.410Z,44.38
2023-05-10T06:01:03.659Z,56.20
2023-05-10T06:03:32.037Z,48.20
2023-05-10T06:06:00.439Z,47.20
2023-05-10T06:08:29.949Z,44.83
2023-05-10T06:10:58.198Z,43.90
2023-05-10T06:13:30.073Z,48.53
2023-05-10T06:15:58.323Z,51.58
2023-05-10T06:18:26.816Z,47.55
2023-05-10T06:20:55.206Z,46.85
2023-05-10T06:23:23.594Z,49.67
2023-05-10T06:25:53.795Z,47.40
2023-05-10T06:28:23.725Z,51.00
2023-05-10T06:30:52.060Z,55.85
2023-05-10T06:33:20.322Z,52.35
2023-05-10T06:35:48.980Z,52.13
2023-05-10T06:38:17.394Z,52.17
2023-05-10T06:40:45.718Z,47.45
2023-05-10T06:43:15.510Z,50.72
2023-05-10T06:45:44.047Z,45.85
2023-05-10T06:48:12.396Z,44.17
2023-05-10T06:50:40.730Z,48.10
2023-05-10T06:53:09.039Z,45.75
2023-05-10T06:55:37.226Z,44.22
2023-05-10T06:58:05.811Z,42.85
2023-05-10T07:00:36.021Z,43.80
2023-05-10T07:03:04.340Z,42.28
2023-05-10T07:05:32.750Z,45.10
2023-05-10T07:08:01.348Z,46.65
2023-05-10T07:10:29.703Z,48.25
2023-05-10T07:12:58.306Z,37.92
2023-05-10T07:15:26.706Z,38.50
2023-05-10T07:17:56.597Z,36.50
2023-05-10T07:20:24.986Z,35.22
2023-05-10T07:22:53.466Z,33.40
2023-05-10T07:25:21.872Z,38.72
2023-05-10T07:27:50.462Z,33.10
2023-05-10T07:30:18.995Z,33.22
2023-05-10T07:32:47.256Z,33.60
2023-05-10T07:35:17.565Z,34.03
2023-05-10T07:37:46.412Z,30.45
2023-05-10T07:40:14.700Z,28.88
2023-05-10T07:42:43.165Z,27.30
2023-05-10T07:45:12.167Z,29.35
2023-05-10T07:47:40.529Z,26.67
2023-05-10T07:50:10.257Z,25.48
2023-05-10T07:52:40.056Z,25.15
2023-05-10T07:55:09.509Z,26.40
2023-05-10T07:57:37.864Z,29.20
2023-05-10T08:00:06.978Z,23.85
2023-05-10T08:02:36.296Z,27.60
2023-05-10T08:05:06.552Z,25.70
2023-05-10T08:07:34.908Z,27.00
2023-05-10T08:10:04.895Z,27.35
2023-05-10T08:12:33.211Z,26.00
2023-05-10T08:15:01.571Z,26.73
2023-05-10T08:17:29.919Z,27.98
2023-05-10T08:19:58.199Z,29.45
2023-05-10T08:22:26.454Z,26.85
2023-05-10T08:24:54.890Z,25.02
2023-05-10T08:27:24.557Z,26.02
2023-05-10T08:29:54.976Z,25.35
2023-05-10T08:32:23.114Z,30.23
2023-05-10T08:34:51.415Z,25.10
2023-05-10T08:37:19.630Z,24.38
2023-05-10T08:39:48.975Z,30.55
2023-05-10T08:42:21.901Z,24.83
2023-05-10T08:44:52.013Z,25.95
2023-05-10T08:47:20.814Z,25.85
2023-05-10T08:49:52.153Z,29.73
2023-05-10T08:52:21.236Z,26.02
2023-05-10T08:54:49.793Z,25.52
2023-05-10T08:57:18.511Z,26.30
2023-05-10T08:59:47.148Z,25.45
2023-05-10T09:02:18.767Z,21.85
2023-05-10T09:04:48.032Z,23.92
2023-05-10T09:07:17.007Z,22.83
2023-05-10T09:09:45.702Z,23.63
2023-05-10T09:12:16.892Z,19.13
2023-05-10T09:14:46.849Z,20.63
2023-05-10T09:17:18.277Z,21.77
2023-05-10T09:19:47.468Z,21.30
2023-05-10T09:22:15.823Z,20.48
2023-05-10T09:24:46.515Z,19.52
2023-05-10T09:27:14.700Z,21.00
2023-05-10T09:29:43.766Z,19.33
2023-05-10T09:32:13.912Z,20.00
2023-05-10T09:34:43.759Z,21.77
2023-05-10T09:37:11.919Z,21.10
2023-05-10T09:39:40.760Z,22.42
2023-05-10T09:42:10.183Z,20.30
2023-05-10T09:44:39.115Z,20.75
2023-05-10T09:47:07.638Z,23.83
2023-05-10T09:49:36.489Z,22.40
2023-05-10T09:52:07.322Z,20.73
2023-05-10T09:54:36.411Z,20.00
2023-05-10T09:57:04.716Z,18.08
2023-05-10T09:59:35.966Z,20.88
2023-05-10T10:02:04.947Z,20.00
2023-05-10T10:04:33.822Z,19.73
2023-05-10T10:07:04.628Z,22.23
2023-05-10T10:09:38.166Z,19.95
2023-05-10T10:12:07.188Z,18.10
2023-05-10T10:14:37.092Z,19.88
2023-05-10T10:17:08.962Z,17.00
2023-05-10T10:19:38.290Z,17.55
2023-05-10T10:22:07.403Z,19.23
2023-05-10T10:24:37.101Z,19.77
2023-05-10T10:27:23.912Z,19.15
2023-05-10T10:30:02.552Z,18.85
2023-05-10T10:32:39.545Z,18.77
2023-05-10T10:35:10.519Z,18.40
2023-05-10T10:37:46.956Z,19.17
2023-05-10T10:40:33.576Z,17.52
2023-05-10T10:43:24.784Z,24.35
2023-05-10T10:46:18.317Z,16.40
2023-05-10T10:48:52.623Z,19.23
2023-05-10T10:51:21.248Z,18.10
2023-05-10T10:53:50.748Z,19.02
2023-05-10T10:56:26.104Z,19.30
2023-05-10T10:58:54.819Z,15.15
2023-05-10T11:01:24.878Z,19.58
2023-05-10T11:04:21.883Z,20.17
2023-05-10T11:06:50.102Z,17.65
2023-05-10T11:09:18.634Z,16.77
2023-05-10T11:11:57.290Z,17.40
2023-05-10T11:14:25.834Z,15.65
2023-05-10T11:16:54.316Z,18.63
2023-05-10T11:19:22.641Z,17.33
2023-05-10T11:21:52.358Z,16.67
2023-05-10T11:24:23.178Z,15.57
2023-05-10T11:26:53.433Z,19.48
2023-05-10T11:29:23.349Z,16.77
2023-05-10T11:31:53.048Z,17.15
2023-05-10T11:34:28.400Z,16.50
2023-05-10T11:36:58.208Z,17.10
2023-05-10T11:39:29.735Z,15.90
2023-05-10T11:42:01.449Z,15.73
2023-05-10T11:44:33.718Z,18.08
2023-05-10T11:47:02.501Z,16.05
2023-05-10T11:49:31.159Z,18.00
2023-05-10T11:52:07.298Z,18.52
2023-05-10T11:54:37.607Z,18.23
2023-05-10T11:57:06.297Z,15.27
2023-05-10T11:59:35.979Z,18.45
2023-05-10T12:02:04.330Z,17.20
2023-05-10T12:04:33.001Z,17.80
2023-05-10T12:07:01.430Z,18.25
2023-05-10T12:09:42.733Z,16.80
2023-05-10T12:12:12.273Z,17.00
2023-05-10T12:14:41.865Z,20.75
2023-05-10T12:17:14.484Z,18.05
2023-05-10T12:19:43.388Z,19.80
2023-05-10T12:22:11.569Z,23.58
2023-05-10T12:24:42.991Z,21.25
2023-05-10T12:27:12.277Z,23.15
2023-05-10T12:29:45.594Z,23.38
2023-05-10T12:32:14.193Z,21.95
2023-05-10T12:34:42.464Z,24.48
2023-05-10T12:37:10.619Z,23.85
2023-05-10T12:39:43.133Z,23.52
2023-05-10T12:42:12.009Z,23.50
2023-05-10T12:44:41.993Z,24.95
2023-05-10T12:47:10.291Z,23.58
2023-05-10T12:49:38.590Z,22.60
2023-05-10T12:52:06.835Z,22.85
2023-05-10T12:54:35.173Z,23.60
2023-05-10T12:57:03.735Z,20.73
2023-05-10T12:59:32.114Z,22.13
2023-05-10T13:02:01.927Z,21.27
2023-05-10T13:04:30.163Z,19.65
2023-05-10T13:06:59.943Z,20.17
2023-05-10T13:09:30.459Z,19.15
2023-05-10T13:11:58.790Z,22.08
2023-05-10T13:14:27.475Z,20.63
2023-05-10T13:16:56.030Z,17.48
2023-05-10T13:19:25.950Z,18.20
2023-05-10T13:21:54.379Z,17.88
2023-05-10T13:24:23.391Z,18.80
2023-05-10T13:26:51.730Z,19.15
2023-05-10T13:29:20.312Z,20.00
2023-05-10T13:31:48.797Z,22.55
2023-05-10T13:34:17.538Z,18.23
2023-05-10T13:36:47.102Z,21.27
2023-05-10T13:39:15.532Z,19.23
2023-05-10T13:41:44.105Z,16.75
2023-05-10T13:44:14.910Z,16.92
2023-05-10T13:46:43.346Z,14.65
2023-05-10T13:49:11.757Z,15.13
2023-05-10T13:51:40.002Z,16.92
2023-05-10T13:54:10.899Z,17.67
2023-05-10T13:56:41.835Z,21.80
2023-05-10T13:59:10.061Z,17.38
2023-05-10T14:01:39.026Z,17.98
2023-05-10T14:04:08.165Z,21.63
2023-05-10T14:06:36.407Z,18.50
2023-05-10T14:09:04.983Z,16.35
2023-05-10T14:11:34.863Z,21.05
2023-05-10T14:14:03.608Z,18.20
2023-05-10T14:16:32.463Z,18.02
2023-05-10T14:19:00.934Z,20.42
2023-05-10T14:21:30.456Z,20.85
2023-05-10T14:23:58.966Z,17.85
2023-05-10T14:26:27.403Z,18.63
2023-05-10T14:28:57.136Z,19.70
2023-05-10T14:31:26.930Z,20.23
2023-05-10T14:33:55.393Z,17.70
2023-05-10T14:36:23.797Z,17.15
2023-05-10T14:38:53.042Z,18.98
2023-05-10T14:41:21.321Z,17.30
2023-05-10T14:43:49.531Z,18.30
2023-05-10T14:46:19.230Z,15.63
2023-05-10T14:48:47.645Z,13.75
2023-05-10T14:51:16.099Z,18.48
2023-05-10T14:53:45.246Z,18.98
2023-05-10T14:56:13.537Z,18.95
2023-05-10T14:58:41.708Z,18.38
2023-05-10T15:01:10.193Z,17.60
2023-05-10T15:03:42.825Z,17.25
2023-05-10T15:06:12.172Z,15.70
2023-05-10T15:08:40.587Z,16.65
2023-05-10T15:11:11.814Z,19.05
2023-05-10T15:13:40.677Z,17.40
2023-05-10T15:16:09.218Z,16.90
2023-05-10T15:18:39.047Z,18.50
2023-05-10T15:21:07.347Z,19.35
2023-05-10T15:23:35.691Z,17.10
2023-05-10T15:26:04.055Z,14.95
2023-05-10T15:28:33.057Z,20.48
2023-05-10T15:31:02.766Z,14.20
2023-05-10T15:33:31.385Z,19.42
2023-05-10T15:36:01.106Z,21.15
2023-05-10T15:38:29.281Z,17.17
2023-05-10T15:40:59.654Z,15.82
2023-05-10T15:43:28.280Z,17.98
2023-05-10T15:45:56.552Z,17.75
2023-05-10T15:48:24.854Z,18.95
2023-05-10T15:50:53.726Z,19.35
2023-05-10T15:53:23.444Z,14.98
2023-05-10T15:55:51.873Z,14.68
2023-05-10T15:58:21.116Z,18.77
2023-05-10T16:00:49.425Z,19.67
2023-05-10T16:03:17.839Z,14.82
2023-05-10T16:05:46.175Z,15.23
2023-05-10T16:08:14.446Z,10.35
2023-05-10T16:10:45.643Z,12.07
2023-05-10T16:13:15.182Z,12.13
2023-05-10T16:15:43.481Z,11.27
2023-05-10T16:18:12.586Z,10.30
2023-05-10T16:20:41.055Z,9.65
2023-05-10T16:23:09.309Z,10.00
2023-05-10T16:25:37.681Z,10.23
2023-05-10T16:28:07.424Z,8.73
2023-05-10T16:30:36.926Z,9.32
2023-05-10T16:33:05.356Z,12.40
2023-05-10T16:35:33.600Z,8.63
2023-05-10T16:38:01.854Z,10.40
2023-05-10T16:40:30.143Z,9.82
2023-05-10T16:42:58.746Z,8.82
2023-05-10T16:45:28.438Z,18.40
2023-05-10T16:47:56.820Z,16.30
2023-05-10T16:50:25.301Z,12.25
2023-05-10T16:52:53.676Z,32.35
2023-05-10T16:55:24.732Z,64.50
2023-05-10T16:57:59.709Z,11.82
2023-05-10T17:02:57.919Z,10.90
2023-05-10T17:05:26.290Z,11.73
2023-05-10T17:07:54.735Z,11.15
2023-05-10T17:10:23.375Z,9.68
2023-05-10T17:12:51.794Z,9.93
2023-05-10T17:15:21.010Z,10.95
2023-05-10T17:17:51.204Z,10.40
2023-05-10T17:20:19.781Z,11.00
2023-05-10T17:22:48.041Z,8.43
2023-05-10T17:25:16.730Z,12.20
2023-05-10T17:27:45.145Z,11.40
2023-05-10T17:30:15.096Z,10.32
2023-05-10T17:32:43.432Z,11.32
2023-05-10T17:35:13.104Z,13.48
2023-05-10T17:37:44.253Z,12.93
2023-05-10T17:40:13.351Z,12.80
2023-05-10T17:42:41.934Z,12.43
2023-05-10T17:45:11.152Z,15.43
2023-05-10T17:47:39.991Z,17.58
2023-05-10T17:50:10.151Z,19.88
2023-05-10T17:52:39.919Z,22.65
2023-05-10T17:55:09.194Z,19.77
2023-05-10T17:57:38.781Z,19.42
2023-05-10T18:00:08.831Z,21.40
2023-05-10T18:02:37.900Z,20.42
2023-05-10T18:05:06.779Z,21.27
2023-05-10T18:07:36.020Z,22.80
2023-05-10T18:10:06.784Z,23.02
2023-05-10T18:12:34.994Z,22.67
2023-05-10T18:15:03.304Z,25.00
2023-05-10T18:17:31.691Z,22.60
2023-05-10T18:19:59.959Z,24.40
2023-05-10T18:22:28.238Z,23.90
2023-05-10T18:24:56.563Z,21.73
2023-05-10T18:27:26.109Z,22.45
2023-05-10T18:29:54.352Z,27.52
2023-05-10T18:32:25.206Z,27.25
2023-05-10T18:34:56.101Z,30.20
2023-05-10T18:37:24.645Z,27.63
2023-05-10T18:39:53.282Z,34.83
2023-05-10T18:42:21.610Z,29.60
2023-05-10T18:44:51.391Z,31.45
2023-05-10T18:47:20.124Z,33.63
2023-05-10T18:49:48.379Z,30.52
2023-05-10T18:52:17.213Z,34.00
2023-05-10T18:54:45.601Z,31.75
2023-05-10T18:57:13.971Z,30.95
2023-05-10T18:59:42.291Z,31.42
2023-05-10T19:02:12.255Z,31.92
2023-05-10T19:04:40.601Z,33.45
2023-05-10T19:07:10.305Z,34.47
2023-05-10T19:09:38.654Z,35.28
2023-05-10T19:12:06.996Z,36.80
2023-05-10T19:14:35.227Z,37.13
2023-05-10T19:17:03.756Z,38.45
2023-05-10T19:19:33.346Z,36.22
2023-05-10T19:22:02.694Z,37.47
2023-05-10T19:24:31.181Z,34.50
2023-05-10T19:26:59.836Z,42.30
2023-05-10T19:29:28.681Z,36.97
2023-05-10T19:31:57.061Z,39.25
2023-05-10T19:34:25.432Z,35.97
2023-05-10T19:36:55.581Z,38.78
2023-05-10T19:39:23.815Z,34.22
2023-05-10T19:41:51.965Z,37.78
2023-05-10T19:44:20.577Z,33.28
2023-05-10T19:46:48.856Z,38.58
2023-05-10T19:49:17.235Z,44.63
2023-05-10T19:51:45.887Z,39.90
2023-05-10T19:54:15.569Z,44.05
2023-05-10T19:56:43.814Z,48.58
2023-05-10T19:59:12.037Z,42.53
2023-05-10T20:01:40.650Z,35.13
2023-05-10T20:04:10.209Z,37.38
2023-05-10T20:06:38.670Z,38.55
2023-05-10T20:09:07.004Z,36.10
2023-05-10T20:11:36.688Z,35.50
2023-05-10T20:14:05.469Z,38.45
2023-05-10T20:16:34.044Z,39.05
2023-05-10T20:19:02.782Z,36.00
2023-05-10T20:21:31.192Z,39.55
2023-05-10T20:23:59.633Z,43.22
2023-05-10T20:26:27.790Z,44.35
2023-05-10T20:28:57.879Z,38.17
2023-05-10T20:31:26.483Z,40.15
2023-05-10T20:33:54.806Z,45.72
2023-05-10T20:36:23.441Z,43.05
2023-05-10T20:38:51.834Z,40.38
2023-05-10T20:41:20.138Z,36.97
2023-05-10T20:43:48.667Z,32.15
2023-05-10T20:46:18.294Z,31.63
2023-05-10T20:48:46.440Z,27.35
2023-05-10T20:51:14.722Z,30.48
2023-05-10T20:53:42.937Z,27.33
2023-05-10T20:56:12.693Z,24.70
2023-05-10T20:58:41.041Z,20.92
2023-05-10T21:01:09.289Z,19.70
2023-05-10T21:03:38.851Z,16.75
2023-05-10T21:06:07.333Z,17.40
2023-05-10T21:08:36.028Z,13.65
2023-05-10T21:11:05.785Z,13.52
2023-05-10T21:13:34.169Z,12.00
2023-05-10T21:16:02.522Z,10.95
2023-05-10T21:18:30.856Z,11.88
2023-05-10T21:21:01.113Z,9.13
2023-05-10T21:23:29.500Z,11.70
2023-05-10T21:25:57.814Z,11.05
2023-05-10T21:28:26.199Z,11.00
2023-05-10T21:30:54.870Z,10.55
2023-05-10T21:33:23.000Z,11.23
2023-05-10T21:35:51.486Z,12.05
2023-05-10T21:38:21.452Z,10.27
2023-05-10T21:40:49.619Z,9.18
2023-05-10T21:43:17.953Z,10.27
2023-05-10T21:45:46.582Z,6.70
2023-05-10T21:48:15.006Z,7.95
2023-05-10T21:50:43.865Z,8.27
2023-05-10T21:53:12.240Z,6.30
2023-05-10T21:55:41.792Z,8.23
2023-05-10T21:58:10.205Z,7.15
2023-05-10T22:00:38.564Z,7.45
2023-05-10T22:03:06.905Z,6.57
2023-05-10T22:05:35.164Z,5.00
2023-05-10T22:08:03.431Z,4.90
2023-05-10T22:10:31.775Z,6.80
2023-05-10T22:13:01.530Z,9.70
2023-05-10T22:15:31.972Z,6.53
2023-05-10T22:18:01.523Z,7.43
2023-05-10T22:20:29.706Z,6.85
2023-05-10T22:22:58.170Z,6.68
2023-05-10T22:25:26.578Z,6.35
2023-05-10T22:27:55.145Z,10.80
2023-05-10T22:30:27.551Z,8.50
2023-05-10T22:32:55.975Z,10.60
2023-05-10T22:35:24.121Z,10.43
2023-05-10T22:37:52.604Z,8.05
2023-05-10T22:40:21.088Z,9.55
2023-05-10T22:42:49.260Z,9.55
2023-05-10T22:45:17.674Z,9.38
2023-05-10T22:47:48.440Z,8.48
2023-05-10T22:50:18.132Z,12.23
2023-05-10T22:52:46.760Z,16.27
2023-05-10T22:55:15.083Z,10.52
2023-05-10T22:57:43.382Z,13.52
2023-05-10T23:00:12.729Z,8.82
2023-05-10T23:02:41.250Z,12.05
2023-05-10T23:05:11.586Z,12.18
2023-05-10T23:07:39.985Z,9.07
2023-05-10T23:10:08.949Z,11.48
2023-05-10T23:12:37.169Z,14.10
2023-05-10T23:15:06.480Z,13.38
2023-05-10T23:17:34.768Z,17.23
2023-05-10T23:20:03.018Z,14.70
2023-05-10T23:22:32.935Z,16.95
2023-05-10T23:25:01.610Z,14.50
2023-05-10T23:27:30.520Z,16.10
2023-05-10T23:29:59.551Z,14.60
2023-05-10T23:32:27.850Z,17.35
2023-05-10T23:34:56.074Z,17.25
2023-05-10T23:37:24.301Z,13.55
2023-05-10T23:39:54.048Z,15.60
2023-05-10T23:42:22.442Z,17.20
2023-05-10T23:44:51.895Z,14.93
2023-05-10T23:47:20.437Z,14.70
2023-05-10T23:49:50.753Z,15.10
2023-05-10T23:52:23.085Z,13.73
2023-05-10T23:54:51.420Z,15.80
2023-05-10T23:57:21.543Z,13.23
2023-05-10T23:59:49.924Z,16.75
